createdAt,value
2019-02-04T00:01:22.956Z,100.00
2019-02-04T00:03:52.427Z,100.00
2019-02-04T00:06:21.548Z,100.00
2019-02-04T00:08:50.649Z,100.00
2019-02-04T00:11:19.792Z,100.00
2019-02-04T00:13:48.887Z,100.00
2019-02-04T00:16:18.310Z,100.00
2019-02-04T00:18:47.607Z,100.00
2019-02-04T00:21:16.720Z,100.00
2019-02-04T00:23:45.812Z,100.00
2019-02-04T00:26:15.510Z,100.00
2019-02-04T00:28:44.625Z,100.00
2019-02-04T00:31:13.741Z,100.00
2019-02-04T00:33:42.827Z,100.00
2019-02-04T00:36:12.037Z,100.00
2019-02-04T00:38:41.139Z,100.00
2019-02-04T00:41:10.241Z,100.00
2019-02-04T00:43:39.372Z,100.00
2019-02-04T00:46:08.456Z,100.00
2019-02-04T00:48:37.597Z,100.00
2019-02-04T00:51:06.721Z,100.00
2019-02-04T00:53:35.915Z,100.00
2019-02-04T00:56:05.165Z,100.00
2019-02-04T00:58:34.286Z,100.00
2019-02-04T01:01:03.386Z,100.00
2019-02-04T01:03:32.508Z,100.00
2019-02-04T01:06:01.604Z,100.00
2019-02-04T01:08:30.729Z,100.00
2019-02-04T01:10:59.913Z,100.00
2019-02-04T01:13:29.062Z,100.00
2019-02-04T01:15:58.170Z,100.00
2019-02-04T01:18:27.306Z,100.00
2019-02-04T01:20:56.404Z,100.00
2019-02-04T01:23:25.522Z,100.00
2019-02-04T01:25:54.618Z,100.00
2019-02-04T01:28:23.733Z,100.00
2019-02-04T01:30:53.214Z,100.00
2019-02-04T01:33:22.343Z,100.00
2019-02-04T01:35:51.437Z,100.00
2019-02-04T01:38:20.555Z,100.00
2019-02-04T01:40:49.654Z,100.00
2019-02-04T01:43:18.771Z,100.00
2019-02-04T01:45:48.151Z,100.00
2019-02-04T01:48:17.285Z,100.00
2019-02-04T01:50:46.407Z,100.00
2019-02-04T01:53:15.529Z,100.00
2019-02-04T01:55:44.620Z,100.00
2019-02-04T01:58:13.752Z,100.00
2019-02-04T02:00:42.846Z,100.00
2019-02-04T02:03:11.963Z,100.00
2019-02-04T02:05:41.073Z,100.00
2019-02-04T02:08:10.196Z,100.00
2019-02-04T02:10:39.296Z,100.00
2019-02-04T02:13:08.408Z,100.00
2019-02-04T02:15:37.499Z,100.00
2019-02-04T02:18:06.621Z,100.00
2019-02-04T02:20:35.723Z,100.00
2019-02-04T02:23:04.889Z,100.00
2019-02-04T02:25:33.987Z,100.00
2019-02-04T02:28:03.472Z,100.00
2019-02-04T02:30:33.614Z,100.00
2019-02-04T02:33:02.817Z,100.00
2019-02-04T02:35:31.935Z,100.00
2019-02-04T02:38:01.037Z,100.00
2019-02-04T02:40:32.135Z,100.00
2019-02-04T02:43:01.621Z,100.00
2019-02-04T02:45:31.130Z,100.00
2019-02-04T02:48:00.239Z,100.00
2019-02-04T02:50:29.387Z,100.00
2019-02-04T02:52:58.485Z,100.00
2019-02-04T02:55:27.615Z,100.00
2019-02-04T02:57:56.980Z,100.00
2019-02-04T03:00:27.653Z,100.00
2019-02-04T03:02:56.756Z,100.00
2019-02-04T03:05:26.048Z,100.00
2019-02-04T03:07:55.156Z,100.00
2019-02-04T03:10:26.403Z,100.00
2019-02-04T03:12:55.534Z,100.00
2019-02-04T03:15:24.664Z,100.00
2019-02-04T03:17:53.786Z,100.00
2019-02-04T03:20:22.922Z,100.00
2019-02-04T03:22:52.031Z,100.00
2019-02-04T03:25:21.157Z,100.00
2019-02-04T03:27:50.266Z,100.00
2019-02-04T03:30:25.130Z,100.00
2019-02-04T03:32:54.236Z,100.00
2019-02-04T03:35:23.350Z,100.00
2019-02-04T03:37:52.708Z,100.00
2019-02-04T03:40:23.787Z,100.00
2019-02-04T03:42:52.918Z,100.00
2019-02-04T03:45:22.002Z,100.00
2019-02-04T03:48:03.751Z,100.00
2019-02-04T03:50:21.990Z,100.00
2019-02-04T03:52:51.704Z,100.00
2019-02-04T03:55:21.234Z,100.00
2019-02-04T03:57:50.328Z,100.00
2019-02-04T04:00:30.922Z,100.00
2019-02-04T04:03:00.045Z,100.00
2019-02-04T04:05:29.375Z,100.00
2019-02-04T04:07:58.469Z,100.00
2019-02-04T04:10:27.605Z,100.00
2019-02-04T04:12:56.701Z,100.00
2019-02-04T04:15:25.826Z,100.00
2019-02-04T04:17:54.946Z,100.00
2019-02-04T04:20:24.080Z,100.00
2019-02-04T04:22:53.178Z,100.00
2019-02-04T04:25:22.305Z,100.00
2019-02-04T04:27:51.412Z,100.00
2019-02-04T04:30:22.743Z,100.00
2019-02-04T04:32:51.834Z,100.00
2019-02-04T04:35:21.027Z,100.00
2019-02-04T04:37:50.122Z,100.00
2019-02-04T04:40:19.239Z,100.00
2019-02-04T04:42:48.336Z,100.00
2019-02-04T04:45:19.045Z,100.00
2019-02-04T04:47:48.522Z,100.00
2019-02-04T04:50:17.759Z,100.00
2019-02-04T04:52:46.879Z,100.00
2019-02-04T04:55:18.613Z,100.00
2019-02-04T04:57:47.724Z,100.00
2019-02-04T05:00:19.430Z,100.00
2019-02-04T05:02:48.545Z,100.00
2019-02-04T05:05:17.641Z,100.00
2019-02-04T05:07:46.776Z,100.00
2019-02-04T05:10:17.124Z,100.00
2019-02-04T05:12:46.345Z,100.00
2019-02-04T05:15:17.808Z,100.00
2019-02-04T05:17:46.928Z,100.00
2019-02-04T05:20:16.388Z,100.00
2019-02-04T05:22:45.702Z,100.00
2019-02-04T05:25:14.973Z,100.00
2019-02-04T05:27:44.109Z,100.00
2019-02-04T05:30:15.629Z,100.00
2019-02-04T05:32:44.765Z,100.00
2019-02-04T05:35:13.957Z,100.00
2019-02-04T05:37:43.078Z,100.00
2019-02-04T05:40:13.645Z,100.00
2019-02-04T05:42:42.752Z,100.00
2019-02-04T05:45:13.536Z,100.00
2019-02-04T05:47:42.663Z,100.00
2019-02-04T05:50:13.749Z,100.00
2019-02-04T05:52:42.874Z,100.00
2019-02-04T05:55:12.782Z,100.00
2019-02-04T05:57:42.181Z,100.00
2019-02-04T06:00:14.235Z,100.00
2019-02-04T06:02:43.351Z,100.00
2019-02-04T06:05:12.797Z,100.00
2019-02-04T06:07:41.908Z,100.00
2019-02-04T06:10:11.147Z,100.00
2019-02-04T06:12:40.263Z,100.00
2019-02-04T06:15:10.267Z,100.00
2019-02-04T06:17:39.385Z,100.00
2019-02-04T06:20:10.873Z,100.00
2019-02-04T06:22:39.991Z,100.00
2019-02-04T06:25:09.365Z,100.00
2019-02-04T06:27:38.490Z,100.00
2019-02-04T06:30:08.321Z,100.00
2019-02-04T06:32:37.450Z,100.00
2019-02-04T06:35:06.778Z,100.00
2019-02-04T06:37:35.902Z,100.00
2019-02-04T06:40:06.190Z,100.00
2019-02-04T06:42:35.304Z,100.00
2019-02-04T06:45:05.204Z,100.00
2019-02-04T06:47:34.331Z,100.00
2019-02-04T06:50:03.469Z,100.00
2019-02-04T06:52:32.592Z,100.00
2019-02-04T06:55:02.193Z,100.00
2019-02-04T06:57:31.317Z,100.00
2019-02-04T07:00:00.500Z,100.00
2019-02-04T07:02:29.630Z,100.00
2019-02-04T07:04:58.729Z,100.00
2019-02-04T07:07:27.823Z,100.00
2019-02-04T07:09:57.132Z,100.00
2019-02-04T07:12:26.225Z,100.00
2019-02-04T07:14:55.345Z,100.00
2019-02-04T07:17:24.432Z,100.00
2019-02-04T07:19:53.560Z,100.00
2019-02-04T07:22:22.724Z,100.00
2019-02-04T07:24:52.087Z,100.00
2019-02-04T07:27:22.510Z,100.00
2019-02-04T07:29:51.775Z,100.00
2019-02-04T07:32:20.891Z,100.00
2019-02-04T07:34:50.022Z,100.00
2019-02-04T07:37:19.123Z,100.00
2019-02-04T07:39:48.417Z,99.79
2019-02-04T07:42:17.533Z,98.42
2019-02-04T07:44:46.908Z,97.52
2019-02-04T07:47:16.000Z,96.75
2019-02-04T07:49:45.136Z,96.84
2019-02-04T07:52:14.239Z,94.81
2019-02-04T07:54:43.630Z,93.15
2019-02-04T07:57:12.722Z,92.54
2019-02-04T07:59:41.843Z,90.32
2019-02-04T08:02:10.935Z,85.58
2019-02-04T08:04:40.046Z,82.04
2019-02-04T08:07:09.134Z,82.67
2019-02-04T08:09:38.419Z,81.05
2019-02-04T08:12:07.501Z,81.69
2019-02-04T08:14:36.611Z,83.04
2019-02-04T08:17:05.775Z,82.89
2019-02-04T08:19:46.390Z,84.27
2019-02-04T08:22:05.726Z,82.89
2019-02-04T08:24:34.829Z,82.64
2019-02-04T08:27:03.920Z,81.01
2019-02-04T08:32:28.560Z,79.92
2019-02-04T08:34:57.665Z,79.97
2019-02-04T08:37:26.745Z,75.98
2019-02-04T08:39:55.855Z,73.70
2019-02-04T08:42:24.936Z,76.79
2019-02-04T08:44:54.041Z,73.77
2019-02-04T08:47:24.175Z,75.86
2019-02-04T08:49:58.433Z,76.58
2019-02-04T08:52:24.256Z,76.44
2019-02-04T08:54:53.361Z,75.04
2019-02-04T08:57:22.448Z,72.11
2019-02-04T08:59:51.562Z,71.09
2019-02-04T09:02:20.649Z,66.60
2019-02-04T09:04:50.040Z,64.67
2019-02-04T09:07:19.121Z,62.26
2019-02-04T09:09:48.266Z,56.83
2019-02-04T09:12:17.321Z,52.43
2019-02-04T09:14:46.432Z,53.58
2019-02-04T09:17:15.600Z,56.54
2019-02-04T09:19:45.065Z,58.36
2019-02-04T09:22:14.173Z,59.19
2019-02-04T09:24:43.246Z,55.84
2019-02-04T09:27:12.394Z,57.11
2019-02-04T09:29:41.480Z,55.53
2019-02-04T09:32:10.590Z,55.59
2019-02-04T09:34:39.688Z,59.61
2019-02-04T09:37:09.062Z,58.83
2019-02-04T09:39:38.950Z,60.11
2019-02-04T09:42:08.060Z,57.32
2019-02-04T09:44:37.148Z,58.35
2019-02-04T09:47:06.255Z,59.67
2019-02-04T09:49:35.390Z,58.84
2019-02-04T09:52:04.474Z,54.38
2019-02-04T09:54:33.562Z,56.52
2019-02-04T09:57:02.671Z,58.37
2019-02-04T09:59:31.757Z,53.55
2019-02-04T10:02:00.939Z,56.93
2019-02-04T10:04:30.037Z,53.66
2019-02-04T10:06:59.151Z,52.98
2019-02-04T10:09:28.243Z,51.92
2019-02-04T10:11:57.341Z,54.86
2019-02-04T10:14:26.432Z,53.59
2019-02-04T10:16:55.575Z,51.66
2019-02-04T10:19:24.630Z,45.17
2019-02-04T10:21:54.082Z,44.76
2019-02-04T10:24:23.256Z,44.70
2019-02-04T10:26:52.335Z,50.05
2019-02-04T10:29:22.211Z,52.73
2019-02-04T10:31:51.311Z,56.99
2019-02-04T10:34:20.828Z,50.07
2019-02-04T10:36:49.903Z,55.87
2019-02-04T10:39:19.002Z,57.53
2019-02-04T10:41:48.108Z,54.42
2019-02-04T10:44:17.207Z,55.81
2019-02-04T10:46:46.282Z,57.69
2019-02-04T10:49:15.657Z,52.08
2019-02-04T10:51:44.852Z,50.95
2019-02-04T10:54:13.933Z,53.32
2019-02-04T10:56:43.002Z,57.22
2019-02-04T10:59:12.111Z,53.59
2019-02-04T11:01:41.216Z,58.49
2019-02-04T11:04:10.324Z,56.31
2019-02-04T11:06:39.390Z,52.74
2019-02-04T11:09:10.099Z,54.97
2019-02-04T11:11:39.178Z,52.50
2019-02-04T11:14:08.606Z,56.53
2019-02-04T11:16:37.681Z,55.46
2019-02-04T11:19:07.477Z,55.44
2019-02-04T11:21:36.565Z,56.33
2019-02-04T11:24:06.229Z,57.13
2019-02-04T11:26:35.370Z,58.23
2019-02-04T11:29:04.663Z,54.49
2019-02-04T11:31:33.789Z,51.48
2019-02-04T11:34:03.147Z,52.34
2019-02-04T11:36:32.226Z,54.28
2019-02-04T11:39:01.320Z,55.07
2019-02-04T11:41:30.403Z,52.61
2019-02-04T11:43:59.565Z,50.72
2019-02-04T11:46:28.717Z,47.57
2019-02-04T11:48:57.991Z,46.57
2019-02-04T11:51:27.094Z,44.00
2019-02-04T11:53:56.198Z,48.32
2019-02-04T11:56:25.277Z,44.36
2019-02-04T11:58:54.395Z,46.55
2019-02-04T12:01:23.490Z,44.98
2019-02-04T12:03:52.778Z,45.04
2019-02-04T12:06:21.862Z,45.73
2019-02-04T12:08:50.966Z,45.76
2019-02-04T12:11:21.544Z,46.40
2019-02-04T12:13:50.633Z,44.56
2019-02-04T12:16:19.722Z,41.47
2019-02-04T12:18:48.920Z,39.05
2019-02-04T12:21:21.620Z,36.95
2019-02-04T12:23:48.856Z,33.01
2019-02-04T12:26:17.960Z,33.50
2019-02-04T12:28:47.083Z,34.66
2019-02-04T12:31:16.182Z,41.56
2019-02-04T12:33:45.271Z,40.00
2019-02-04T12:36:14.383Z,41.77
2019-02-04T12:38:43.469Z,38.85
2019-02-04T12:41:12.587Z,36.46
2019-02-04T12:43:41.680Z,35.86
2019-02-04T12:46:10.901Z,32.83
2019-02-04T12:48:40.079Z,36.23
2019-02-04T12:51:09.228Z,38.56
2019-02-04T12:53:38.332Z,35.31
2019-02-04T12:56:07.454Z,36.85
2019-02-04T12:58:36.565Z,40.30
2019-02-04T13:01:06.370Z,37.74
2019-02-04T13:03:35.478Z,34.80
2019-02-04T13:06:06.050Z,36.85
2019-02-04T13:08:35.138Z,38.98
2019-02-04T13:11:04.350Z,42.75
2019-02-04T13:13:33.447Z,43.36
2019-02-04T13:16:02.549Z,41.44
2019-02-04T13:18:31.639Z,42.14
2019-02-04T13:21:00.756Z,37.21
2019-02-04T13:23:29.859Z,38.09
2019-02-04T13:25:58.987Z,38.98
2019-02-04T13:28:28.105Z,36.76
2019-02-04T13:30:57.188Z,45.12
2019-02-04T13:33:26.269Z,47.31
2019-02-04T13:35:55.378Z,46.43
2019-02-04T13:38:24.457Z,50.28
2019-02-04T13:40:53.561Z,52.99
2019-02-04T13:43:22.641Z,52.75
2019-02-04T13:45:51.754Z,54.63
2019-02-04T13:48:20.854Z,54.17
2019-02-04T13:50:49.988Z,54.36
2019-02-04T13:53:19.078Z,55.19
2019-02-04T13:55:48.160Z,57.20
2019-02-04T13:58:17.263Z,58.51
2019-02-04T14:00:46.629Z,58.26
2019-02-04T14:03:17.888Z,58.80
2019-02-04T14:05:46.544Z,58.83
2019-02-04T14:08:15.650Z,59.54
2019-02-04T14:10:46.191Z,59.33
2019-02-04T14:13:15.431Z,59.06
2019-02-04T14:15:44.619Z,58.87
2019-02-04T14:18:13.728Z,58.97
2019-02-04T14:20:42.817Z,59.82
2019-02-04T14:23:11.917Z,59.29
2019-02-04T14:25:41.000Z,59.46
2019-02-04T14:28:10.107Z,57.69
2019-02-04T14:30:39.583Z,59.00
2019-02-04T14:33:08.832Z,60.08
2019-02-04T14:35:57.009Z,60.12
2019-02-04T14:38:26.133Z,60.74
2019-02-04T14:40:55.227Z,61.18
2019-02-04T14:43:28.740Z,61.75
2019-02-04T14:46:23.226Z,61.74
2019-02-04T14:49:21.626Z,60.12
2019-02-04T14:52:43.689Z,59.78
2019-02-04T14:55:48.971Z,60.46
2019-02-04T14:58:55.081Z,59.79
2019-02-04T15:02:09.961Z,59.80
2019-02-04T15:04:56.605Z,59.05
2019-02-04T15:08:33.716Z,58.67
2019-02-04T15:11:36.690Z,58.05
2019-02-04T15:14:37.203Z,58.07
2019-02-04T15:17:16.915Z,57.42
2019-02-04T15:20:29.843Z,58.23
2019-02-04T15:23:34.170Z,57.94
2019-02-04T15:26:37.284Z,59.58
2019-02-04T15:29:14.611Z,59.33
2019-02-04T15:32:17.246Z,59.43
2019-02-04T15:35:18.680Z,60.02
2019-02-04T15:38:13.936Z,60.83
2019-02-04T15:41:00.407Z,60.89
2019-02-04T15:44:02.142Z,61.62
2019-02-04T15:47:05.754Z,61.52
2019-02-04T15:50:16.373Z,62.54
2019-02-04T15:52:45.941Z,63.55
2019-02-04T15:55:17.878Z,63.97
2019-02-04T15:57:46.962Z,64.28
2019-02-04T16:00:17.215Z,64.32
2019-02-04T16:02:46.353Z,64.67
2019-02-04T16:05:15.471Z,64.92
2019-02-04T16:07:44.671Z,65.57
2019-02-04T16:10:16.034Z,66.67
2019-02-04T16:12:47.745Z,67.88
2019-02-04T16:15:16.437Z,68.44
2019-02-04T16:17:45.524Z,69.52
2019-02-04T16:20:20.171Z,70.95
2019-02-04T16:22:57.737Z,72.45
2019-02-04T16:25:20.109Z,71.54
2019-02-04T16:27:49.194Z,70.59
2019-02-04T16:30:19.922Z,69.45
2019-02-04T16:32:49.117Z,70.42
2019-02-04T16:35:18.773Z,69.89
2019-02-04T16:37:48.491Z,70.08
2019-02-04T16:40:19.268Z,70.01
2019-02-04T16:42:48.365Z,70.87
2019-02-04T16:45:18.693Z,71.33
2019-02-04T16:47:47.783Z,70.96
2019-02-04T16:50:22.565Z,71.23
2019-02-04T16:52:51.661Z,70.39
2019-02-04T16:55:20.759Z,70.05
2019-02-04T16:57:49.851Z,70.36
2019-02-04T17:00:21.598Z,71.33
2019-02-04T17:02:50.701Z,72.10
2019-02-04T17:05:20.214Z,71.29
2019-02-04T17:07:49.424Z,70.91
2019-02-04T17:10:19.548Z,72.28
2019-02-04T17:12:48.658Z,72.58
2019-02-04T17:15:17.965Z,72.86
2019-02-04T17:17:47.420Z,75.15
2019-02-04T17:20:22.891Z,75.56
2019-02-04T17:22:52.007Z,75.56
2019-02-04T17:25:21.098Z,76.15
2019-02-04T17:27:50.216Z,74.64
2019-02-04T17:30:21.645Z,74.72
2019-02-04T17:32:50.788Z,75.37
2019-02-04T17:35:19.878Z,77.40
2019-02-04T17:37:48.996Z,78.91
2019-02-04T17:40:20.822Z,79.23
2019-02-04T17:42:50.357Z,78.17
2019-02-04T17:45:19.446Z,78.83
2019-02-04T17:47:49.339Z,78.29
2019-02-04T17:50:19.335Z,77.04
2019-02-04T17:52:48.837Z,75.50
2019-02-04T17:55:19.907Z,74.85
2019-02-04T17:57:49.019Z,74.09
2019-02-04T18:00:35.617Z,74.50
2019-02-04T18:03:05.185Z,74.69
2019-02-04T18:05:34.325Z,74.40
2019-02-04T18:08:03.438Z,74.04
2019-02-04T18:10:33.946Z,74.46
2019-02-04T18:13:03.053Z,74.18
2019-02-04T18:15:32.141Z,74.15
2019-02-04T18:18:01.257Z,74.74
2019-02-04T18:20:30.427Z,74.46
2019-02-04T18:22:59.636Z,73.94
2019-02-04T18:25:29.000Z,73.40
2019-02-04T18:27:58.100Z,72.70
2019-02-04T18:30:27.586Z,73.17
2019-02-04T18:32:56.815Z,72.89
2019-02-04T18:35:26.288Z,73.03
2019-02-04T18:37:55.390Z,73.29
2019-02-04T18:40:24.588Z,73.34
2019-02-04T18:42:53.985Z,73.07
2019-02-04T18:45:25.141Z,73.26
2019-02-04T18:47:54.255Z,72.56
2019-02-04T18:50:24.432Z,72.94
2019-02-04T18:52:53.608Z,72.38
2019-02-04T18:55:30.780Z,71.98
2019-02-04T18:57:59.894Z,72.24
2019-02-04T19:00:29.786Z,72.36
2019-02-04T19:02:59.603Z,72.19
2019-02-04T19:05:28.698Z,72.67
2019-02-04T19:07:57.818Z,71.88
2019-02-04T19:10:26.905Z,72.20
2019-02-04T19:12:56.020Z,72.52
2019-02-04T19:15:25.286Z,72.44
2019-02-04T19:17:56.646Z,72.37
2019-02-04T19:20:25.836Z,72.56
2019-02-04T19:22:54.926Z,72.60
2019-02-04T19:25:24.054Z,72.08
2019-02-04T19:27:53.279Z,71.85
2019-02-04T19:30:58.311Z,71.82
2019-02-04T19:33:27.408Z,71.49
2019-02-04T19:35:56.492Z,71.69
2019-02-04T19:38:25.604Z,70.81
2019-02-04T19:40:54.973Z,70.64
2019-02-04T19:43:24.081Z,70.46
2019-02-04T19:45:53.171Z,70.49
2019-02-04T19:48:22.278Z,71.28
2019-02-04T19:50:51.385Z,70.93
2019-02-04T19:53:22.761Z,70.84
2019-02-04T19:55:51.304Z,70.82
2019-02-04T19:58:20.400Z,70.79
2019-02-04T20:00:49.511Z,70.87
2019-02-04T20:03:18.658Z,70.38
2019-02-04T20:05:50.993Z,70.37
2019-02-04T20:08:18.580Z,69.99
2019-02-04T20:10:48.077Z,69.96
2019-02-04T20:13:17.167Z,69.89
2019-02-04T20:15:46.285Z,69.83
2019-02-04T20:18:16.265Z,69.42
2019-02-04T20:20:45.381Z,69.24
2019-02-04T20:23:14.470Z,69.85
2019-02-04T20:25:43.585Z,70.25
2019-02-04T20:28:12.675Z,69.65
2019-02-04T20:30:45.866Z,69.05
2019-02-04T20:33:13.326Z,69.37
2019-02-04T20:35:42.443Z,69.21
2019-02-04T20:38:11.589Z,69.61
2019-02-04T20:40:40.727Z,69.67
2019-02-04T20:43:10.228Z,69.35
2019-02-04T20:45:39.340Z,69.87
2019-02-04T20:48:10.704Z,69.69
2019-02-04T20:50:40.771Z,69.13
2019-02-04T20:53:09.872Z,70.06
2019-02-04T20:55:38.981Z,70.09
2019-02-04T20:58:08.103Z,70.29
2019-02-04T21:00:37.325Z,69.73
2019-02-04T21:03:06.571Z,70.60
2019-02-04T21:05:35.774Z,69.87
2019-02-04T21:08:05.768Z,69.48
2019-02-04T21:10:34.870Z,69.60
2019-02-04T21:13:03.963Z,69.72
2019-02-04T21:15:33.065Z,68.85
2019-02-04T21:18:02.149Z,69.12
2019-02-04T21:20:31.350Z,69.34
2019-02-04T21:23:00.453Z,69.68
2019-02-04T21:25:29.542Z,69.42
2019-02-04T21:27:58.650Z,69.29
2019-02-04T21:30:29.656Z,69.94
2019-02-04T21:32:58.803Z,69.64
2019-02-04T21:35:27.893Z,70.04
2019-02-04T21:37:57.108Z,69.91
2019-02-04T21:40:26.569Z,70.63
2019-02-04T21:42:55.669Z,70.19
2019-02-04T21:45:24.788Z,70.55
2019-02-04T21:47:53.889Z,70.23
2019-02-04T21:50:24.358Z,70.58
2019-02-04T21:52:53.590Z,70.73
2019-02-04T21:55:23.447Z,70.64
2019-02-04T21:57:52.684Z,70.57
2019-02-04T22:00:29.701Z,70.37
2019-02-04T22:02:58.915Z,70.49
2019-02-04T22:05:29.556Z,70.35
2019-02-04T22:07:58.765Z,70.21
2019-02-04T22:10:28.641Z,70.22
2019-02-04T22:12:57.856Z,70.17
2019-02-04T22:15:26.950Z,69.51
2019-02-04T22:17:56.061Z,68.92
2019-02-04T22:20:25.145Z,69.44
2019-02-04T22:22:54.256Z,69.67
2019-02-04T22:25:23.981Z,69.97
2019-02-04T22:27:53.234Z,69.83
2019-02-04T22:30:24.128Z,70.66
2019-02-04T22:32:53.247Z,69.85
2019-02-04T22:35:22.333Z,70.58
2019-02-04T22:37:51.458Z,69.94
2019-02-04T22:40:25.636Z,70.36
2019-02-04T22:42:55.638Z,70.65
2019-02-04T22:45:24.830Z,71.16
2019-02-04T22:47:53.951Z,70.56
2019-02-04T22:50:27.790Z,70.45
2019-02-04T22:52:57.233Z,71.23
2019-02-04T22:55:31.970Z,71.50
2019-02-04T22:57:57.176Z,71.28
2019-02-04T23:00:44.003Z,71.30
2019-02-04T23:03:13.760Z,72.62
2019-02-04T23:05:42.848Z,71.47
2019-02-04T23:08:11.959Z,71.37
2019-02-04T23:10:41.045Z,71.56
2019-02-04T23:13:10.158Z,71.79
2019-02-04T23:15:39.240Z,71.69
2019-02-04T23:18:08.737Z,71.88
2019-02-04T23:20:37.826Z,71.86
2019-02-04T23:23:06.932Z,72.19
2019-02-04T23:25:43.133Z,72.09
2019-02-04T23:28:07.558Z,71.62
2019-02-04T23:30:36.652Z,71.96
2019-02-04T23:33:06.053Z,71.66
2019-02-04T23:35:35.271Z,72.54
2019-02-04T23:38:05.356Z,70.99
2019-02-04T23:40:34.580Z,71.22
2019-02-04T23:43:03.769Z,71.39
2019-02-04T23:45:32.879Z,71.09
2019-02-04T23:48:02.243Z,70.27
2019-02-04T23:50:31.355Z,71.12
2019-02-04T23:53:00.474Z,70.79
2019-02-04T23:55:29.578Z,70.72
2019-02-04T23:57:58.678Z,69.97
